Terminal Aerodrome Forecast
Issued by NWS

Home | Current Version | Previous Version | Text Only | Print | Product List | Glossary On
Versions: 1 2 3 4 5 6 7 8 9 10 11 12 13 14 15 16 17 18 19 20 21
997
FTUS43 KBIS 302034 AAA
TAFDIK
TAF AMD
KDIK 302034Z 3021/3118 05009KT P6SM -SHRA OVC080
     FM310300 30012G21KT P6SM BKN100
     FM311400 27016G25KT P6SM -SHRA BKN015=

USA.gov is the U.S. government's official web portal to all federal, state and local government web resources and services.